createdAt,value
2022-12-05T00:01:43.827Z,101801.00
2022-12-05T00:04:13.130Z,101802.00
2022-12-05T00:06:41.466Z,101805.00
2022-12-05T00:09:10.225Z,101810.00
2022-12-05T00:11:39.200Z,101804.00
2022-12-05T00:14:07.018Z,101803.00
2022-12-05T00:16:35.477Z,101806.00
2022-12-05T00:19:03.745Z,101801.00
2022-12-05T00:21:32.723Z,101808.00
2022-12-05T00:24:01.319Z,101801.00
2022-12-05T00:26:28.457Z,101811.00
2022-12-05T00:28:56.525Z,101814.00
2022-12-05T00:31:24.539Z,101812.00
2022-12-05T00:33:52.903Z,101809.00
2022-12-05T00:36:25.617Z,101821.00
2022-12-05T00:38:53.367Z,101817.00
2022-12-05T00:41:22.930Z,101825.00
2022-12-05T00:43:50.543Z,101813.00
2022-12-05T00:46:20.057Z,101816.00
2022-12-05T00:48:47.593Z,101823.00
2022-12-05T00:51:17.539Z,101826.00
2022-12-05T00:53:45.196Z,101823.00
2022-12-05T00:56:14.724Z,101830.00
2022-12-05T00:58:41.556Z,101831.00
2022-12-05T01:01:14.219Z,101831.00
2022-12-05T01:03:41.756Z,101824.00
2022-12-05T01:06:09.359Z,101823.00
2022-12-05T01:08:36.259Z,101827.00
2022-12-05T01:11:04.625Z,101823.00
2022-12-05T01:13:32.003Z,101820.00
2022-12-05T01:15:58.609Z,101815.00
2022-12-05T01:18:25.726Z,101823.00
2022-12-05T01:20:53.312Z,101829.00
2022-12-05T01:23:20.738Z,101823.00
2022-12-05T01:25:49.138Z,101819.00
2022-12-05T01:28:16.880Z,101823.00
2022-12-05T01:30:47.589Z,101823.00
2022-12-05T01:33:14.494Z,101823.00
2022-12-05T01:35:42.073Z,101829.00
2022-12-05T01:38:10.513Z,101823.00
2022-12-05T01:40:37.360Z,101826.00
2022-12-05T01:43:04.876Z,101832.00
2022-12-05T01:45:39.091Z,101823.00
2022-12-05T01:48:18.131Z,101832.00
2022-12-05T01:50:45.426Z,101832.00
2022-12-05T01:53:12.260Z,101829.00
2022-12-05T01:55:39.324Z,101832.00
2022-12-05T01:58:08.374Z,101829.00
2022-12-05T02:00:35.005Z,101826.00
2022-12-05T02:03:08.602Z,101830.00
2022-12-05T02:05:36.776Z,101830.00
2022-12-05T02:08:09.584Z,101837.00
2022-12-05T02:10:42.789Z,101829.00
2022-12-05T02:13:30.440Z,101826.00
2022-12-05T02:16:32.948Z,101819.00
2022-12-05T02:19:17.945Z,101827.00
2022-12-05T02:22:09.251Z,101826.00
2022-12-05T02:24:44.744Z,101814.00
2022-12-05T02:27:17.891Z,101816.00
2022-12-05T02:30:02.289Z,101816.00
2022-12-05T02:32:34.865Z,101822.00
2022-12-05T02:35:04.165Z,101814.00
2022-12-05T02:37:52.259Z,101813.00
2022-12-05T02:40:31.040Z,101811.00
2022-12-05T02:43:05.757Z,101805.00
2022-12-05T02:45:35.995Z,101821.00
2022-12-05T02:48:04.722Z,101811.00
2022-12-05T02:50:38.243Z,101816.00
2022-12-05T02:53:11.493Z,101812.00
2022-12-05T02:55:40.453Z,101823.00
2022-12-05T02:58:13.078Z,101821.00
2022-12-05T03:00:40.251Z,101823.00
2022-12-05T03:03:15.488Z,101825.00
2022-12-05T03:05:56.132Z,101815.00
2022-12-05T03:08:28.879Z,101821.00
2022-12-05T03:10:57.312Z,101818.00
2022-12-05T03:13:30.692Z,101820.00
2022-12-05T03:16:03.075Z,101820.00
2022-12-05T03:18:34.268Z,101823.00
2022-12-05T03:21:08.432Z,101821.00
2022-12-05T03:23:40.025Z,101823.00
2022-12-05T03:26:17.842Z,101822.00
2022-12-05T03:28:54.474Z,101824.00
2022-12-05T03:31:31.674Z,101820.00
2022-12-05T03:34:01.719Z,101820.00
2022-12-05T03:36:50.724Z,101824.00
2022-12-05T03:39:27.960Z,101827.00
2022-12-05T03:42:00.965Z,101831.00
2022-12-05T03:44:43.019Z,101823.00
2022-12-05T03:47:18.667Z,101825.00
2022-12-05T03:49:50.253Z,101829.00
2022-12-05T03:52:19.685Z,101831.00
2022-12-05T03:54:57.662Z,101825.00
2022-12-05T03:57:35.895Z,101837.00
2022-12-05T04:00:07.353Z,101830.00
2022-12-05T04:02:45.682Z,101831.00
2022-12-05T04:05:27.078Z,101831.00
2022-12-05T04:08:10.334Z,101830.00
2022-12-05T04:10:48.688Z,101840.00
2022-12-05T04:13:32.302Z,101831.00
2022-12-05T04:16:31.910Z,101834.00
2022-12-05T04:19:07.922Z,101828.00
2022-12-05T04:21:41.152Z,101831.00
2022-12-05T04:24:34.334Z,101828.00
2022-12-05T04:27:25.615Z,101837.00
2022-12-05T04:30:06.307Z,101836.00
2022-12-05T04:32:47.072Z,101841.00
2022-12-05T04:35:54.213Z,101843.00
2022-12-05T04:38:30.374Z,101846.00
2022-12-05T04:41:01.540Z,101846.00
2022-12-05T04:43:30.958Z,101843.00
2022-12-05T04:45:59.739Z,101848.00
2022-12-05T04:48:28.278Z,101850.00
2022-12-05T04:50:56.908Z,101848.00
2022-12-05T04:53:27.351Z,101849.00
2022-12-05T04:55:58.363Z,101852.00
2022-12-05T04:58:27.944Z,101854.00
2022-12-05T05:01:13.785Z,101853.00
2022-12-05T05:03:46.165Z,101860.00
2022-12-05T05:06:13.668Z,101865.00
2022-12-05T05:08:55.371Z,101873.00
2022-12-05T05:11:24.541Z,101872.00
2022-12-05T05:13:52.031Z,101857.00
2022-12-05T05:16:24.780Z,101870.00
2022-12-05T05:18:52.308Z,101862.00
2022-12-05T05:21:30.831Z,101857.00
2022-12-05T05:23:58.139Z,101858.00
2022-12-05T05:26:25.872Z,101856.00
2022-12-05T05:28:53.214Z,101858.00
2022-12-05T05:31:23.295Z,101852.00
2022-12-05T05:33:55.340Z,101861.00
2022-12-05T05:36:23.763Z,101865.00
2022-12-05T05:38:52.589Z,101876.00
2022-12-05T05:41:22.258Z,101870.00
2022-12-05T05:43:49.330Z,101872.00
2022-12-05T05:46:18.017Z,101870.00
2022-12-05T05:48:44.794Z,101870.00
2022-12-05T05:51:12.971Z,101873.00
2022-12-05T05:53:39.975Z,101874.00
2022-12-05T05:56:09.626Z,101879.00
2022-12-05T05:58:36.740Z,101889.00
2022-12-05T06:01:21.694Z,101883.00
2022-12-05T06:03:48.983Z,101882.00
2022-12-05T06:06:16.217Z,101887.00
2022-12-05T06:08:44.991Z,101890.00
2022-12-05T06:11:16.858Z,101891.00
2022-12-05T06:13:48.496Z,101887.00
2022-12-05T06:16:16.627Z,101890.00
2022-12-05T06:18:43.607Z,101887.00
2022-12-05T06:21:16.032Z,101889.00
2022-12-05T06:23:43.071Z,101893.00
2022-12-05T06:26:15.776Z,101890.00
2022-12-05T06:28:42.817Z,101893.00
2022-12-05T06:31:15.295Z,101892.00
2022-12-05T06:33:42.369Z,101895.00
2022-12-05T06:36:12.134Z,101901.00
2022-12-05T06:38:42.017Z,101915.00
2022-12-05T06:41:12.166Z,101910.00
2022-12-05T06:43:38.799Z,101910.00
2022-12-05T06:46:07.425Z,101900.00
2022-12-05T06:48:34.606Z,101900.00
2022-12-05T06:51:01.366Z,101904.00
2022-12-05T06:53:28.350Z,101904.00
2022-12-05T06:56:05.707Z,101909.00
2022-12-05T06:58:32.295Z,101897.00
2022-12-05T07:01:37.413Z,101906.00
2022-12-05T07:04:06.335Z,101909.00
2022-12-05T07:06:34.654Z,101909.00
2022-12-05T07:09:01.873Z,101911.00
2022-12-05T07:11:28.511Z,101909.00
2022-12-05T07:13:55.272Z,101916.00
2022-12-05T07:16:22.472Z,101921.00
2022-12-05T07:18:50.149Z,101918.00
2022-12-05T07:21:17.128Z,101923.00
2022-12-05T07:23:46.593Z,101921.00
2022-12-05T07:26:15.706Z,101918.00
2022-12-05T07:28:42.596Z,101926.00
2022-12-05T07:31:12.399Z,101932.00
2022-12-05T07:33:39.259Z,101931.00
2022-12-05T07:36:09.491Z,101930.00
2022-12-05T07:38:36.501Z,101927.00
2022-12-05T07:41:12.982Z,101937.00
2022-12-05T07:43:40.832Z,101933.00
2022-12-05T07:46:08.845Z,101933.00
2022-12-05T07:48:35.452Z,101938.00
2022-12-05T07:51:04.420Z,101945.00
2022-12-05T07:53:32.372Z,101945.00
2022-12-05T07:56:04.968Z,101954.00
2022-12-05T07:58:32.078Z,101953.00
2022-12-05T08:01:13.132Z,101961.00
2022-12-05T08:03:40.174Z,101964.00
2022-12-05T08:06:13.546Z,101964.00
2022-12-05T08:08:40.472Z,101969.00
2022-12-05T08:11:10.159Z,101966.00
2022-12-05T08:13:37.074Z,101969.00
2022-12-05T08:16:07.282Z,101973.00
2022-12-05T08:18:34.100Z,101975.00
2022-12-05T08:21:05.735Z,101979.00
2022-12-05T08:23:32.979Z,101985.00
2022-12-05T08:26:04.562Z,101987.00
2022-12-05T08:28:32.286Z,101990.00
2022-12-05T08:31:10.351Z,101990.00
2022-12-05T08:33:38.608Z,101991.00
2022-12-05T08:36:07.741Z,101992.00
2022-12-05T08:38:35.039Z,101993.00
2022-12-05T08:41:02.651Z,101997.00
2022-12-05T08:43:30.366Z,101996.00
2022-12-05T08:45:57.225Z,101996.00
2022-12-05T08:48:29.038Z,102004.00
2022-12-05T08:50:56.601Z,101996.00
2022-12-05T08:53:23.219Z,101993.00
2022-12-05T08:55:50.003Z,102002.00
2022-12-05T08:58:17.067Z,102003.00
2022-12-05T09:00:43.964Z,102012.00
2022-12-05T09:03:12.234Z,102004.00
2022-12-05T09:05:39.544Z,102001.00
2022-12-05T09:08:06.412Z,102005.00
2022-12-05T09:10:33.853Z,102007.00
2022-12-05T09:13:00.455Z,102011.00
2022-12-05T09:15:27.034Z,101998.00
2022-12-05T09:17:54.646Z,102006.00
2022-12-05T09:20:21.272Z,102009.00
2022-12-05T09:22:47.911Z,102015.00
2022-12-05T09:25:14.554Z,102020.00
2022-12-05T09:27:41.137Z,102013.00
2022-12-05T09:30:09.379Z,102021.00
2022-12-05T09:32:35.993Z,102020.00
2022-12-05T09:35:02.839Z,102022.00
2022-12-05T09:37:43.020Z,102018.00
2022-12-05T09:40:17.877Z,102028.00
2022-12-05T09:43:10.460Z,102029.00
2022-12-05T09:45:44.044Z,102029.00
2022-12-05T09:48:14.597Z,102029.00
2022-12-05T09:50:44.175Z,102037.00
2022-12-05T09:53:14.412Z,102037.00
2022-12-05T09:56:27.339Z,102032.00
2022-12-05T09:59:00.754Z,102038.00
2022-12-05T10:01:41.970Z,102037.00
2022-12-05T10:04:27.485Z,102033.00
2022-12-05T10:07:21.552Z,102044.00
2022-12-05T10:09:59.148Z,102031.00
2022-12-05T10:12:38.055Z,102032.00
2022-12-05T10:15:04.473Z,102029.00
2022-12-05T10:17:34.272Z,102029.00
2022-12-05T10:20:09.512Z,102033.00
2022-12-05T10:22:45.408Z,102032.00
2022-12-05T10:25:14.924Z,102032.00
2022-12-05T10:27:48.261Z,102029.00
2022-12-05T10:30:17.735Z,102034.00
2022-12-05T10:33:09.498Z,102035.00
2022-12-05T10:35:38.675Z,102031.00
2022-12-05T10:38:11.229Z,102043.00
2022-12-05T10:40:38.941Z,102043.00
2022-12-05T10:43:08.259Z,102036.00
2022-12-05T10:45:41.709Z,102039.00
2022-12-05T10:48:13.290Z,102045.00
2022-12-05T10:50:40.415Z,102032.00
2022-12-05T10:53:08.026Z,102031.00
2022-12-05T10:56:00.123Z,102039.00
2022-12-05T10:58:30.882Z,102035.00
2022-12-05T11:01:07.933Z,102034.00
2022-12-05T11:03:38.162Z,102029.00
2022-12-05T11:06:31.245Z,102024.00
2022-12-05T11:09:14.539Z,102025.00
2022-12-05T11:11:41.423Z,102031.00
2022-12-05T11:14:26.091Z,102043.00
2022-12-05T11:16:55.404Z,102033.00
2022-12-05T11:19:21.964Z,102036.00
2022-12-05T11:21:52.436Z,102041.00
2022-12-05T11:24:33.790Z,102035.00
2022-12-05T11:27:22.076Z,102039.00
2022-12-05T11:29:59.015Z,102039.00
2022-12-05T11:32:29.392Z,102038.00
2022-12-05T11:35:07.746Z,102035.00
2022-12-05T11:37:46.098Z,102041.00
2022-12-05T11:40:15.774Z,102033.00
2022-12-05T11:43:14.158Z,102036.00
2022-12-05T11:45:47.014Z,102029.00
2022-12-05T11:48:31.457Z,102038.00
2022-12-05T11:51:10.120Z,102040.00
2022-12-05T11:53:51.807Z,102038.00
2022-12-05T11:56:38.428Z,102034.00
2022-12-05T11:59:23.658Z,102030.00
2022-12-05T12:02:19.183Z,102029.00
2022-12-05T12:05:18.008Z,102024.00
2022-12-05T12:07:59.849Z,102028.00
2022-12-05T12:10:54.248Z,102032.00
2022-12-05T12:13:27.943Z,102021.00
2022-12-05T12:16:08.587Z,102026.00
2022-12-05T12:18:54.335Z,102030.00
2022-12-05T12:22:02.548Z,102026.00
2022-12-05T12:24:47.633Z,102026.00
2022-12-05T12:27:19.991Z,102030.00
2022-12-05T12:29:55.489Z,102029.00
2022-12-05T12:32:43.799Z,102030.00
2022-12-05T12:35:29.659Z,102031.00
2022-12-05T12:37:56.238Z,102034.00
2022-12-05T12:40:26.086Z,102019.00
2022-12-05T12:43:44.813Z,102033.00
2022-12-05T12:46:36.701Z,102029.00
2022-12-05T12:49:38.919Z,102028.00
2022-12-05T12:52:18.913Z,102027.00
2022-12-05T12:55:32.524Z,102031.00
2022-12-05T12:58:43.617Z,102024.00
2022-12-05T13:01:33.130Z,102023.00
2022-12-05T13:04:17.518Z,102022.00
2022-12-05T13:07:10.801Z,102018.00
2022-12-05T13:09:52.175Z,102022.00
2022-12-05T13:12:24.980Z,102021.00
2022-12-05T13:15:00.959Z,102022.00
2022-12-05T13:17:30.727Z,102016.00
2022-12-05T13:19:57.840Z,102021.00
2022-12-05T13:22:27.180Z,102017.00
2022-12-05T13:24:55.106Z,102019.00
2022-12-05T13:27:24.535Z,102014.00
2022-12-05T13:29:52.709Z,102021.00
2022-12-05T13:32:42.767Z,102017.00
2022-12-05T13:35:49.843Z,102029.00
2022-12-05T13:38:57.503Z,102027.00
2022-12-05T13:41:58.560Z,102034.00
2022-12-05T13:44:33.351Z,102032.00
2022-12-05T13:47:03.622Z,102037.00
2022-12-05T13:49:33.823Z,102037.00
2022-12-05T13:52:14.400Z,102030.00
2022-12-05T13:54:44.830Z,102037.00
2022-12-05T13:57:40.234Z,102031.00
2022-12-05T14:00:10.448Z,102037.00
2022-12-05T14:02:43.460Z,102037.00
2022-12-05T14:05:19.079Z,102042.00
2022-12-05T14:07:49.990Z,102041.00
2022-12-05T14:10:23.696Z,102041.00
2022-12-05T14:12:51.483Z,102028.00
2022-12-05T14:15:25.916Z,102032.00
2022-12-05T14:18:09.085Z,102037.00
2022-12-05T14:20:58.411Z,102044.00
2022-12-05T14:23:58.474Z,102051.00
2022-12-05T14:26:31.639Z,102043.00
2022-12-05T14:29:13.222Z,102055.00
2022-12-05T14:32:04.175Z,102051.00
2022-12-05T14:34:33.731Z,102052.00
2022-12-05T14:37:09.364Z,102051.00
2022-12-05T14:39:46.646Z,102054.00
2022-12-05T14:42:37.409Z,102054.00
2022-12-05T14:45:30.277Z,102050.00
2022-12-05T14:48:03.315Z,102055.00
2022-12-05T14:50:49.952Z,102052.00
2022-12-05T14:53:35.364Z,102052.00
2022-12-05T14:56:23.921Z,102049.00
2022-12-05T14:58:57.419Z,102057.00
2022-12-05T15:01:26.197Z,102057.00
2022-12-05T15:04:20.328Z,102062.00
2022-12-05T15:06:49.386Z,102060.00
2022-12-05T15:09:50.517Z,102063.00
2022-12-05T15:12:26.552Z,102067.00
2022-12-05T15:14:57.352Z,102073.00
2022-12-05T15:17:36.501Z,102073.00
2022-12-05T15:20:11.277Z,102069.00
2022-12-05T15:22:38.101Z,102067.00
2022-12-05T15:25:24.772Z,102065.00
2022-12-05T15:28:06.158Z,102066.00
2022-12-05T15:30:36.247Z,102068.00
2022-12-05T15:33:02.981Z,102072.00
2022-12-05T15:35:32.932Z,102074.00
2022-12-05T15:38:09.302Z,102078.00
2022-12-05T15:40:39.325Z,102078.00
2022-12-05T15:43:41.421Z,102085.00
2022-12-05T15:46:25.677Z,102091.00
2022-12-05T15:48:56.942Z,102089.00
2022-12-05T15:51:37.654Z,102083.00
2022-12-05T15:54:14.900Z,102087.00
2022-12-05T15:56:57.416Z,102094.00
2022-12-05T15:59:45.972Z,102089.00
2022-12-05T16:02:25.702Z,102092.00
2022-12-05T16:04:59.555Z,102087.00
2022-12-05T16:07:30.209Z,102088.00
2022-12-05T16:09:59.487Z,102096.00
2022-12-05T16:12:33.927Z,102091.00
2022-12-05T16:15:04.943Z,102091.00
2022-12-05T16:17:43.451Z,102093.00
2022-12-05T16:20:31.643Z,102101.00
2022-12-05T16:23:28.138Z,102097.00
2022-12-05T16:26:10.772Z,102098.00
2022-12-05T16:28:37.373Z,102093.00
2022-12-05T16:31:05.884Z,102097.00
2022-12-05T16:33:38.966Z,102091.00
2022-12-05T16:36:12.046Z,102091.00
2022-12-05T16:38:41.088Z,102087.00
2022-12-05T16:41:09.289Z,102088.00
2022-12-05T16:43:36.050Z,102090.00
2022-12-05T16:46:11.500Z,102090.00
2022-12-05T16:48:39.839Z,102103.00
2022-12-05T16:51:21.888Z,102100.00
2022-12-05T16:53:53.174Z,102104.00
2022-12-05T16:56:30.963Z,102094.00
2022-12-05T16:58:58.860Z,102094.00
2022-12-05T17:01:27.852Z,102097.00
2022-12-05T17:03:56.048Z,102112.00
2022-12-05T17:06:24.163Z,102099.00
2022-12-05T17:08:52.270Z,102105.00
2022-12-05T17:11:31.104Z,102109.00
2022-12-05T17:13:58.335Z,102109.00
2022-12-05T17:16:26.923Z,102108.00
2022-12-05T17:18:53.883Z,102117.00
2022-12-05T17:21:27.135Z,102112.00
2022-12-05T17:23:53.678Z,102109.00
2022-12-05T17:26:22.443Z,102112.00
2022-12-05T17:28:49.643Z,102108.00
2022-12-05T17:31:18.697Z,102112.00
2022-12-05T17:33:46.363Z,102116.00
2022-12-05T17:36:13.826Z,102119.00
2022-12-05T17:38:41.012Z,102111.00
2022-12-05T17:41:07.677Z,102114.00
2022-12-05T17:43:34.722Z,102118.00
2022-12-05T17:46:02.620Z,102112.00
2022-12-05T17:48:29.758Z,102116.00
2022-12-05T17:50:59.190Z,102111.00
2022-12-05T17:53:25.882Z,102114.00
2022-12-05T17:55:53.035Z,102122.00
2022-12-05T17:58:19.768Z,102116.00
2022-12-05T18:00:47.114Z,102112.00
2022-12-05T18:03:17.147Z,102115.00
2022-12-05T18:05:44.848Z,102114.00
2022-12-05T18:08:12.354Z,102113.00
2022-12-05T18:10:44.072Z,102119.00
2022-12-05T18:13:11.278Z,102122.00
2022-12-05T18:15:42.738Z,102125.00
2022-12-05T18:18:15.699Z,102132.00
2022-12-05T18:20:42.665Z,102132.00
2022-12-05T18:23:09.287Z,102141.00
2022-12-05T18:25:35.855Z,102131.00
2022-12-05T18:28:02.462Z,102135.00
2022-12-05T18:30:29.045Z,102142.00
2022-12-05T18:32:55.749Z,102150.00
2022-12-05T18:35:40.324Z,102146.00
2022-12-05T18:38:11.420Z,102149.00
2022-12-05T18:40:38.019Z,102151.00
2022-12-05T18:43:04.717Z,102154.00
2022-12-05T18:45:31.546Z,102137.00
2022-12-05T18:48:09.939Z,102139.00
2022-12-05T18:50:44.979Z,102142.00
2022-12-05T18:53:11.567Z,102137.00
2022-12-05T18:55:58.402Z,102146.00
2022-12-05T18:58:24.788Z,102146.00
2022-12-05T19:00:51.421Z,102161.00
2022-12-05T19:03:18.131Z,102156.00
2022-12-05T19:05:44.721Z,102156.00
2022-12-05T19:08:11.452Z,102157.00
2022-12-05T19:10:38.090Z,102171.00
2022-12-05T19:13:04.715Z,102170.00
2022-12-05T19:15:31.293Z,102166.00
2022-12-05T19:17:58.061Z,102159.00
2022-12-05T19:20:24.775Z,102165.00
2022-12-05T19:22:53.169Z,102166.00
2022-12-05T19:25:22.953Z,102167.00
2022-12-05T19:27:49.536Z,102173.00
2022-12-05T19:30:16.328Z,102175.00
2022-12-05T19:32:42.928Z,102173.00
2022-12-05T19:35:09.539Z,102177.00
2022-12-05T19:37:36.219Z,102181.00
2022-12-05T19:40:03.008Z,102176.00
2022-12-05T19:42:30.979Z,102180.00
2022-12-05T19:44:57.654Z,102184.00
2022-12-05T19:47:24.504Z,102180.00
2022-12-05T19:49:51.166Z,102184.00
2022-12-05T19:52:18.198Z,102184.00
2022-12-05T19:54:45.259Z,102182.00
2022-12-05T19:57:12.432Z,102178.00
2022-12-05T19:59:39.111Z,102180.00
2022-12-05T20:02:05.916Z,102171.00
2022-12-05T20:04:32.713Z,102182.00
2022-12-05T20:06:59.537Z,102187.00
2022-12-05T20:09:26.498Z,102183.00
2022-12-05T20:11:55.386Z,102187.00
2022-12-05T20:14:23.120Z,102178.00
2022-12-05T20:16:49.775Z,102179.00
2022-12-05T20:19:16.611Z,102181.00
2022-12-05T20:21:44.530Z,102179.00
2022-12-05T20:24:12.033Z,102178.00
2022-12-05T20:26:43.657Z,102173.00
2022-12-05T20:29:10.974Z,102181.00
2022-12-05T20:31:40.147Z,102181.00
2022-12-05T20:34:09.121Z,102186.00
2022-12-05T20:36:36.401Z,102182.00
2022-12-05T20:39:09.002Z,102180.00
2022-12-05T20:41:36.007Z,102183.00
2022-12-05T20:44:06.195Z,102183.00
2022-12-05T20:46:33.307Z,102180.00
2022-12-05T20:49:00.272Z,102179.00
2022-12-05T20:51:29.889Z,102179.00
2022-12-05T20:53:57.849Z,102170.00
2022-12-05T20:56:29.865Z,102177.00
2022-12-05T20:58:58.704Z,102167.00
2022-12-05T21:01:26.794Z,102177.00
2022-12-05T21:03:54.348Z,102176.00
2022-12-05T21:06:27.050Z,102159.00
2022-12-05T21:08:54.600Z,102172.00
2022-12-05T21:11:22.416Z,102165.00
2022-12-05T21:13:49.086Z,102165.00
2022-12-05T21:16:19.223Z,102168.00
2022-12-05T21:18:46.560Z,102170.00
2022-12-05T21:21:16.110Z,102167.00
2022-12-05T21:23:43.474Z,102167.00
2022-12-05T21:26:18.017Z,102166.00
2022-12-05T21:28:46.036Z,102162.00
2022-12-05T21:31:15.450Z,102167.00
2022-12-05T21:33:45.970Z,102176.00
2022-12-05T21:36:12.762Z,102176.00
2022-12-05T21:38:39.475Z,102183.00
2022-12-05T21:41:06.730Z,102183.00
2022-12-05T21:43:35.015Z,102184.00
2022-12-05T21:46:01.919Z,102176.00
2022-12-05T21:48:28.774Z,102182.00
2022-12-05T21:50:55.542Z,102174.00
2022-12-05T21:53:22.541Z,102191.00
2022-12-05T21:55:58.284Z,102182.00
2022-12-05T21:58:24.886Z,102189.00
2022-12-05T22:00:51.457Z,102186.00
2022-12-05T22:03:18.164Z,102196.00
2022-12-05T22:05:44.750Z,102196.00
2022-12-05T22:08:11.853Z,102199.00
2022-12-05T22:10:38.546Z,102191.00
2022-12-05T22:13:05.399Z,102191.00
2022-12-05T22:15:32.122Z,102191.00
2022-12-05T22:17:58.736Z,102192.00
2022-12-05T22:20:25.319Z,102206.00
2022-12-05T22:22:52.067Z,102201.00
2022-12-05T22:25:18.686Z,102198.00
2022-12-05T22:27:45.327Z,102198.00
2022-12-05T22:30:12.298Z,102198.00
2022-12-05T22:32:38.951Z,102197.00
2022-12-05T22:35:05.712Z,102198.00
2022-12-05T22:37:32.355Z,102196.00
2022-12-05T22:39:59.251Z,102193.00
2022-12-05T22:42:27.557Z,102185.00
2022-12-05T22:44:54.214Z,102188.00
2022-12-05T22:47:20.987Z,102192.00
2022-12-05T22:49:47.626Z,102182.00
2022-12-05T22:52:14.865Z,102186.00
2022-12-05T22:54:41.585Z,102179.00
2022-12-05T22:57:08.404Z,102186.00
2022-12-05T22:59:35.133Z,102180.00
2022-12-05T23:02:01.720Z,102190.00
2022-12-05T23:04:28.512Z,102185.00
2022-12-05T23:06:55.317Z,102188.00
2022-12-05T23:09:22.198Z,102178.00
2022-12-05T23:11:50.795Z,102180.00
2022-12-05T23:14:17.666Z,102180.00
2022-12-05T23:16:44.455Z,102180.00
2022-12-05T23:19:11.235Z,102166.00
2022-12-05T23:21:39.862Z,102172.00
2022-12-05T23:24:12.415Z,102177.00
2022-12-05T23:26:40.894Z,102172.00
2022-12-05T23:29:08.206Z,102166.00
2022-12-05T23:31:35.048Z,102173.00
2022-12-05T23:34:03.827Z,102170.00
2022-12-05T23:36:32.134Z,102172.00
2022-12-05T23:38:58.920Z,102167.00
2022-12-05T23:41:26.193Z,102167.00
2022-12-05T23:43:53.308Z,102168.00
2022-12-05T23:46:22.961Z,102162.00
2022-12-05T23:48:50.124Z,102162.00
2022-12-05T23:51:19.589Z,102164.00
2022-12-05T23:53:48.105Z,102154.00
2022-12-05T23:56:21.652Z,102160.00
2022-12-05T23:58:48.502Z,102165.00
